WXM80 ListenWXM80 Stop

You find our weather info also at:

UK Metoffice

WeatherCloud

Weather Underground

Northeastern Weather Network

AWEKAS

Citizen Weather Observer Program (CWOP)

HAMweather, WeatherForYou, PWS Weather


Weather Underground History page Text

Daily Summary for November 22, 2017 Units:  English    Metric   Both
« Previous Day
Next Day »
Daily Weekly Monthly Yearly Custom
  High: Low: Average:
Temperature: 53.7 °F 38.2 °F 48.5 °F
Dew Point: 52.6 °F 28.9 °F 43.4 °F
Humidity: 96 % 68 % 83 %
Wind Speed: 11.3 mph 0.0 mph 3 mph
Wind Gust: 21.9 mph - -
Wind:- - West
Pressure: 30.08 in 29.65 in -
Precipitation: 0.11 in    
Historical Graphs
 
 
Tabular Data for November 22, 2017
Time Temperature Dew Point Pressure Wind Wind Speed Wind Gust Humidity Rainfall Rate (Hourly)
00:01 53.0 °F 45.3 °F 30.04 in SW 6.4 mph 9.0 mph 75 % 0.00 in
00:06 53.0 °F 45.6 °F 30.04 in SSW 5.0 mph 12.0 mph 76 % 0.00 in
00:11 53.1 °F 45.7 °F 30.04 in SSW 3.0 mph 7.0 mph 76 % 0.00 in
00:17 53.2 °F 45.8 °F 30.04 in WSW 3.9 mph 4.0 mph 76 % 0.00 in
00:22 53.1 °F 45.7 °F 30.03 in SW 4.2 mph 6.9 mph 76 % 0.00 in
00:27 53.2 °F 45.8 °F 29.80 in SW 0.5 mph 2.3 mph 76 % 0.00 in
00:41 53.2 °F 46.2 °F 30.03 in SW 1.8 mph 3.5 mph 77 % 0.00 in
00:46 53.2 °F 46.2 °F 30.02 in South 0.8 mph 3.0 mph 77 % 0.00 in
00:51 53.2 °F 46.2 °F 30.03 in SW 3.8 mph 5.8 mph 77 % 0.00 in
00:56 53.2 °F 46.2 °F 30.02 in SW 2.7 mph 4.6 mph 77 % 0.00 in
01:01 53.2 °F 46.2 °F 30.02 in SW 2.3 mph 3.5 mph 77 % 0.00 in
01:06 53.2 °F 46.2 °F 30.02 in SSW 3.2 mph 4.6 mph 77 % 0.00 in
01:13 53.3 °F 46.3 °F 30.02 in SSW 2.4 mph 5.8 mph 77 % 0.00 in
01:18 53.3 °F 46.6 °F 29.78 in SSW 4.3 mph 5.8 mph 78 % 0.00 in
01:23 53.3 °F 46.6 °F 30.02 in SW 1.2 mph 3.5 mph 78 % 0.00 in
01:29 53.3 °F 46.6 °F 30.02 in SW 2.8 mph 4.6 mph 78 % 0.00 in
01:34 53.3 °F 46.6 °F 30.02 in SW 1.0 mph 6.9 mph 78 % 0.00 in
01:39 53.3 °F 46.6 °F 30.01 in SW 1.2 mph 3.5 mph 78 % 0.00 in
01:44 53.3 °F 46.6 °F 30.01 in South 5.0 mph 6.9 mph 78 % 0.00 in
01:49 53.3 °F 46.6 °F 30.01 in SSW 2.3 mph 3.5 mph 78 % 0.00 in
02:14 53.1 °F 46.8 °F 30.01 in WSW 0.7 mph 3.5 mph 79 % 0.00 in
02:19 53.1 °F 46.8 °F 30.01 in WSW 0.5 mph   79 % 0.00 in
02:24 53.0 °F 46.7 °F 30.01 in WSW 0.2 mph 1.2 mph 79 % 0.00 in
02:29 53.0 °F 46.7 °F 30.01 in Calm     79 % 0.00 in
02:33 52.9 °F 46.6 °F 30.01 in Calm     79 % 0.00 in
02:48 52.7 °F 46.7 °F 30.00 in Calm     80 % 0.00 in
02:58 52.6 °F 46.9 °F 30.00 in Calm     81 % 0.00 in
03:03 52.6 °F 47.3 °F 30.00 in Calm     82 % 0.00 in
03:13 52.5 °F 47.5 °F 30.00 in Calm     83 % 0.00 in
03:24 52.4 °F 47.7 °F 30.00 in Calm     84 % 0.00 in
03:29 52.3 °F 47.9 °F 30.00 in Calm     85 % 0.00 in
03:34 52.3 °F 47.9 °F 29.99 in Calm     85 % 0.00 in
03:39 52.2 °F 48.1 °F 29.99 in Calm     86 % 0.00 in
03:44 52.1 °F 48.3 °F 29.75 in Calm     87 % 0.00 in
03:49 52.0 °F 48.3 °F 29.99 in Calm     87 % 0.00 in
03:54 51.9 °F 48.5 °F 29.98 in Calm     88 % 0.00 in
04:09 51.5 °F 48.1 °F 29.98 in Calm     88 % 0.00 in
04:14 51.4 °F 48.0 °F 29.98 in Calm     88 % 0.00 in
04:19 51.2 °F 48.1 °F 29.97 in Calm     89 % 0.00 in
04:24 51.1 °F 48.0 °F 29.97 in Calm     89 % 0.00 in
04:29 51.0 °F 47.9 °F 29.97 in Calm     89 % 0.00 in
04:34 50.8 °F 47.7 °F 29.97 in Calm     89 % 0.00 in
04:39 50.8 °F 47.7 °F 29.97 in Calm     89 % 0.00 in
04:44 50.8 °F 47.7 °F 29.97 in Calm     89 % 0.00 in
04:49 50.7 °F 47.9 °F 29.97 in Calm     90 % 0.00 in
04:59 50.6 °F 47.8 °F 29.96 in Calm     90 % 0.00 in
05:04 50.6 °F 47.8 °F 29.96 in Calm     90 % 0.00 in
05:15 50.6 °F 48.1 °F 29.95 in Calm     91 % 0.00 in
05:20 50.5 °F 48.0 °F 29.95 in Calm     91 % 0.00 in
05:25 50.5 °F 48.0 °F 29.94 in Calm     91 % 0.00 in
05:30 50.5 °F 48.0 °F 29.94 in Calm     91 % 0.00 in
05:35 50.5 °F 48.0 °F 29.70 in Calm     91 % 0.00 in
05:36 50.5 °F 48.0 °F 29.94 in Calm     91 % 0.00 in
05:41 50.5 °F 48.0 °F 29.93 in Calm     91 % 0.00 in
05:46 50.5 °F 48.0 °F 29.93 in Calm     91 % 0.00 in
05:56 50.5 °F 48.0 °F 29.93 in Calm     91 % 0.00 in
06:06 50.5 °F 48.0 °F 29.93 in Calm     91 % 0.00 in
06:11 50.5 °F 48.0 °F 29.93 in Calm     91 % 0.00 in
06:16 50.5 °F 48.0 °F 29.93 in Calm     91 % 0.00 in
06:21 50.5 °F 48.0 °F 29.93 in Calm     91 % 0.01 in
06:26 50.7 °F 48.5 °F 29.94 in Calm     92 % 0.01 in
06:36 51.0 °F 49.3 °F 29.70 in Calm     94 % 0.02 in
06:42 51.1 °F 49.4 °F 29.94 in Calm     94 % 0.02 in
06:46 51.2 °F 49.5 °F 29.69 in Calm   1.2 mph 94 % 0.02 in
06:57 51.5 °F 50.1 °F 29.93 in WSW 0.6 mph 2.3 mph 95 % 0.03 in
07:02 51.7 °F 50.3 °F 29.93 in Calm     95 % 0.03 in
07:07 51.9 °F 50.5 °F 29.94 in WSW 0.5 mph 2.3 mph 95 % 0.04 in
07:12 52.1 °F 50.7 °F 29.70 in Calm   1.2 mph 95 % 0.04 in
07:17 52.4 °F 51.3 °F 29.93 in Calm     96 % 0.04 in
07:22 52.5 °F 51.4 °F 29.93 in Calm     96 % 0.03 in
07:27 52.7 °F 51.6 °F 29.93 in Calm     96 % 0.03 in
07:32 52.7 °F 51.6 °F 29.92 in Calm     96 % 0.03 in
07:37 52.9 °F 51.8 °F 29.69 in Calm     96 % 0.02 in
07:52 53.1 °F 52.0 °F 29.91 in Calm     96 % 0.01 in
07:57 53.1 °F 52.0 °F 29.91 in Calm     96 % 0.01 in
08:02 53.1 °F 52.0 °F 29.91 in Calm     96 % 0.01 in
08:07 53.2 °F 52.1 °F 29.91 in Calm     96 % 0.00 in
08:12 53.2 °F 52.1 °F 29.68 in Calm     96 % 0.00 in
08:27 53.2 °F 51.8 °F 29.91 in Calm     95 % 0.01 in
08:35 53.2 °F 51.8 °F 29.91 in Calm     95 % 0.01 in
08:40 53.2 °F 51.8 °F 29.91 in Calm     95 % 0.01 in
08:45 53.3 °F 51.9 °F 29.91 in Calm     95 % 0.01 in
08:50 53.3 °F 51.9 °F 29.91 in Calm     95 % 0.01 in
09:05 53.6 °F 52.5 °F 29.91 in West 2.3 mph 4.6 mph 96 % 0.01 in
09:10 53.7 °F 52.6 °F 29.92 in WNW 1.9 mph 3.5 mph 96 % 0.01 in
09:15 53.7 °F 52.6 °F 29.92 in WSW 3.1 mph 4.6 mph 96 % 0.01 in
09:20 53.7 °F 52.6 °F 29.92 in West 0.6 mph 3.5 mph 96 % 0.00 in
09:30 53.7 °F 52.6 °F 29.91 in Calm     96 % 0.00 in
09:35 53.7 °F 52.6 °F 29.91 in West 0.6 mph 2.0 mph 96 % 0.00 in
09:40 53.7 °F 52.6 °F 29.91 in Calm   1.2 mph 96 % 0.00 in
09:46 53.7 °F 52.6 °F 29.91 in Calm   3.5 mph 96 % 0.00 in
09:51 53.7 °F 52.6 °F 29.90 in Calm   2.0 mph 96 % 0.00 in
09:55 53.6 °F 52.5 °F 29.90 in NW 0.5 mph 2.3 mph 96 % 0.00 in
10:00 53.6 °F 52.5 °F 29.67 in WNW 1.3 mph 5.0 mph 96 % 0.00 in
10:05 53.5 °F 52.4 °F 29.91 in WNW 0.8 mph 3.5 mph 96 % 0.00 in
10:10 53.4 °F 52.3 °F 29.91 in WNW 2.9 mph 4.6 mph 96 % 0.00 in
10:15 53.3 °F 52.2 °F 29.91 in NW 1.0 mph 3.5 mph 96 % 0.00 in
10:20 53.2 °F 51.8 °F 29.91 in WNW 2.0 mph 4.0 mph 95 % 0.00 in
10:35 52.9 °F 51.8 °F 29.91 in WSW 1.2 mph 3.5 mph 96 % 0.00 in
10:40 52.9 °F 51.8 °F 29.91 in WSW 2.0 mph 3.5 mph 96 % 0.00 in
10:45 52.8 °F 51.4 °F 29.90 in WNW 2.4 mph 5.8 mph 95 % 0.00 in
10:55 52.5 °F 51.1 °F 29.90 in West 1.9 mph 7.0 mph 95 % 0.00 in
11:00 52.4 °F 51.0 °F 29.90 in NW 0.1 mph 2.3 mph 95 % 0.00 in
11:05 52.3 °F 50.9 °F 29.90 in WNW 1.6 mph 6.0 mph 95 % 0.00 in
11:10 52.2 °F 50.8 °F 29.89 in NW 1.2 mph 3.5 mph 95 % 0.00 in
11:15 52.1 °F 50.7 °F 29.89 in NW 0.1 mph 1.2 mph 95 % 0.00 in
11:20 51.9 °F 50.5 °F 29.88 in NNE 1.0 mph 3.5 mph 95 % 0.01 in
11:25 51.9 °F 50.5 °F 29.88 in NNE 2.4 mph 3.0 mph 95 % 0.01 in
11:35 51.8 °F 50.1 °F 29.88 in Calm     94 % 0.01 in
11:40 51.8 °F 50.4 °F 29.88 in NE 1.1 mph 3.0 mph 95 % 0.01 in
11:45 51.8 °F 50.4 °F 29.88 in North 0.7 mph 1.2 mph 95 % 0.01 in
11:51 51.8 °F 50.4 °F 29.88 in NW 1.0 mph 3.0 mph 95 % 0.00 in
12:01 51.9 °F 50.2 °F 29.89 in WNW 2.5 mph 4.6 mph 94 % 0.01 in
12:11 51.9 °F 50.2 °F 29.89 in WNW 0.1 mph 1.2 mph 94 % 0.01 in
12:16 51.8 °F 50.1 °F 29.89 in West 0.2 mph 2.3 mph 94 % 0.01 in
12:21 51.8 °F 50.1 °F 29.65 in WNW 0.7 mph 3.5 mph 94 % 0.00 in
12:31 51.8 °F 49.8 °F 29.88 in WNW 0.3 mph 3.5 mph 93 % 0.00 in
12:41 51.8 °F 49.8 °F 29.87 in NW 3.8 mph 5.8 mph 93 % 0.00 in
12:46 51.8 °F 49.8 °F 29.87 in West 3.1 mph 4.6 mph 93 % 0.00 in
12:51 51.7 °F 49.5 °F 29.88 in WNW 2.3 mph 6.9 mph 92 % 0.00 in
13:11 51.3 °F 48.8 °F 29.88 in NW 3.2 mph 7.0 mph 91 % 0.01 in
13:16 51.2 °F 48.7 °F 29.88 in WNW 3.0 mph 3.5 mph 91 % 0.01 in
13:21 51.2 °F 48.7 °F 29.88 in WNW 3.8 mph 6.9 mph 91 % 0.01 in
13:26 51.2 °F 48.7 °F 29.88 in WNW 2.3 mph 4.0 mph 91 % 0.01 in
13:32 51.3 °F 48.8 °F 29.88 in West 3.5 mph 4.6 mph 91 % 0.01 in
13:37 51.3 °F 48.5 °F 29.88 in WNW 3.8 mph 5.8 mph 90 % 0.01 in
13:42 51.4 °F 48.6 °F 29.65 in West 5.6 mph 9.2 mph 90 % 0.01 in
13:47 51.6 °F 48.8 °F 29.88 in WNW 2.0 mph 8.1 mph 90 % 0.01 in
13:57 51.9 °F 48.2 °F 29.88 in NW 4.8 mph 9.2 mph 87 % 0.01 in
14:07 51.7 °F 47.6 °F 29.88 in NNW 4.9 mph 9.0 mph 86 % 0.01 in
14:17 51.1 °F 46.7 °F 29.89 in NNW 4.7 mph 11.5 mph 85 % 0.01 in
14:22 50.9 °F 46.9 °F 29.89 in North 7.5 mph 12.7 mph 86 % 0.02 in
14:27 50.2 °F 45.6 °F 29.89 in NNE 8.7 mph 13.8 mph 84 % 0.02 in
14:33 49.6 °F 44.3 °F 29.89 in North 9.6 mph 12.7 mph 82 % 0.02 in
14:38 49.0 °F 44.1 °F 29.90 in WNW 8.1 mph 13.8 mph 83 % 0.02 in
14:43 48.8 °F 44.2 °F 29.90 in NNW 4.5 mph 11.5 mph 84 % 0.02 in
14:48 48.6 °F 43.4 °F 29.90 in NNW 4.4 mph 21.9 mph 82 % 0.01 in
14:53 48.5 °F 43.3 °F 29.90 in NNW 7.1 mph 13.8 mph 82 % 0.01 in
15:03 48.2 °F 42.3 °F 29.91 in NNW 5.7 mph 13.8 mph 80 % 0.01 in
15:08 48.0 °F 41.8 °F 29.92 in NNW 10.6 mph 19.6 mph 79 % 0.02 in
15:13 47.7 °F 41.2 °F 29.92 in NNW 7.6 mph 15.0 mph 78 % 0.02 in
15:18 47.6 °F 41.7 °F 29.92 in NE 6.6 mph 11.0 mph 80 % 0.01 in
15:23 47.4 °F 40.9 °F 29.92 in NW 10.8 mph 19.6 mph 78 % 0.01 in
15:28 47.2 °F 41.3 °F 29.69 in WNW 5.2 mph 12.7 mph 80 % 0.01 in
15:33 47.2 °F 41.3 °F 29.93 in North 5.6 mph 11.5 mph 80 % 0.01 in
15:38 47.0 °F 40.5 °F 29.93 in NNW 4.8 mph 10.4 mph 78 % 0.01 in
15:53 46.6 °F 39.8 °F 29.94 in NNE 6.8 mph 11.5 mph 77 % 0.01 in
16:08 46.3 °F 39.8 °F 29.94 in NNW 4.0 mph 9.2 mph 78 % 0.00 in
16:13 46.1 °F 39.3 °F 29.95 in NNW 7.6 mph 13.8 mph 77 % 0.00 in
16:18 46.0 °F 39.2 °F 29.95 in NNE 6.9 mph 12.7 mph 77 % 0.00 in
16:23 45.8 °F 39.3 °F 29.95 in NNW 6.2 mph 9.2 mph 78 % 0.00 in
16:33 45.6 °F 38.8 °F 29.95 in NW 3.7 mph 8.1 mph 77 % 0.00 in
16:43 45.3 °F 38.8 °F 29.72 in North 6.6 mph 10.4 mph 78 % 0.00 in
16:54 45.2 °F 38.7 °F 29.96 in West 3.1 mph 6.9 mph 78 % 0.00 in
17:04 45.2 °F 38.7 °F 29.96 in NNW 5.6 mph 12.7 mph 78 % 0.00 in
17:09 45.3 °F 38.8 °F 29.96 in North 5.9 mph 9.2 mph 78 % 0.00 in
17:14 45.3 °F 38.8 °F 29.97 in NW 6.8 mph 15.0 mph 78 % 0.00 in
17:19 45.4 °F 38.3 °F 29.97 in WNW 4.0 mph 16.1 mph 76 % 0.00 in
17:29 45.4 °F 36.5 °F 29.98 in WNW 8.1 mph 18.4 mph 71 % 0.01 in
17:39 45.1 °F 36.3 °F 29.98 in NW 8.1 mph 18.4 mph 71 % 0.01 in
17:44 45.0 °F 36.5 °F 29.98 in West 4.3 mph 11.5 mph 72 % 0.01 in
17:49 44.8 °F 35.6 °F 29.99 in NNW 7.2 mph 13.8 mph 70 % 0.01 in
18:04 44.3 °F 35.5 °F 29.98 in West 9.4 mph 15.0 mph 71 % 0.01 in
18:09 44.2 °F 35.7 °F 29.98 in NNW 8.0 mph 18.4 mph 72 % 0.01 in
18:14 44.1 °F 35.3 °F 29.99 in NW 10.9 mph 15.0 mph 71 % 0.01 in
18:19 44.0 °F 35.2 °F 29.99 in NW 5.3 mph 19.6 mph 71 % 0.01 in
18:24 43.9 °F 35.1 °F 29.75 in WNW 6.9 mph 15.0 mph 71 % 0.01 in
18:29 43.7 °F 34.9 °F 30.00 in WNW 9.4 mph 15.0 mph 71 % 0.00 in
18:39 43.5 °F 34.7 °F 29.99 in North 4.5 mph 14.0 mph 71 % 0.00 in
18:44 43.4 °F 35.0 °F 29.99 in NW 2.8 mph 6.9 mph 72 % 0.00 in
18:49 43.3 °F 34.2 °F 30.00 in NW 7.8 mph 13.8 mph 70 % 0.00 in
18:54 43.1 °F 34.7 °F 30.01 in NW 4.4 mph 9.2 mph 72 % 0.00 in
18:59 43.1 °F 34.3 °F 30.01 in NW 3.4 mph 12.7 mph 71 % 0.00 in
19:04 42.9 °F 34.5 °F 30.01 in West 8.6 mph 11.5 mph 72 % 0.00 in
19:09 42.9 °F 34.5 °F 30.01 in NW 4.2 mph 8.1 mph 72 % 0.00 in
19:25 42.9 °F 33.8 °F 30.02 in WNW 11.3 mph 17.3 mph 70 % 0.00 in
19:30 42.8 °F 33.7 °F 30.02 in NNW 4.2 mph 15.0 mph 70 % 0.00 in
19:35 42.7 °F 33.2 °F 30.03 in NNW 8.7 mph 15.0 mph 69 % 0.00 in
19:40 42.6 °F 33.5 °F 30.03 in North 6.3 mph 16.1 mph 70 % 0.00 in
19:45 42.5 °F 33.0 °F 30.03 in WNW 6.8 mph 12.7 mph 69 % 0.00 in
19:50 42.4 °F 33.3 °F 30.03 in WSW 5.9 mph 12.7 mph 70 % 0.00 in
19:57 42.0 °F 32.2 °F 30.02 in NW 5.4 mph 10.4 mph 68 % 0.00 in
20:02 41.9 °F 32.5 °F 30.03 in North 7.8 mph 13.8 mph 69 % 0.00 in
20:07 41.8 °F 32.4 °F 30.03 in NNW 8.1 mph 11.5 mph 69 % 0.00 in
20:12 41.7 °F 31.9 °F 30.03 in NNW 6.1 mph 15.0 mph 68 % 0.00 in
20:27 41.4 °F 32.3 °F 30.03 in NNE 5.7 mph 10.4 mph 70 % 0.00 in
20:33 41.3 °F 31.9 °F 30.04 in NW 7.9 mph 9.2 mph 69 % 0.00 in
20:38 41.2 °F 31.4 °F 30.04 in NW 6.2 mph 6.9 mph 68 % 0.00 in
20:48 41.0 °F 31.6 °F 30.05 in NNE 5.8 mph 11.5 mph 69 % 0.00 in
20:53 40.9 °F 31.5 °F 30.05 in WNW 4.1 mph 9.2 mph 69 % 0.00 in
20:58 40.8 °F 31.4 °F 30.05 in West 4.7 mph 8.1 mph 69 % 0.00 in
21:03 40.7 °F 31.3 °F 30.05 in NW 4.1 mph 11.5 mph 69 % 0.00 in
21:08 40.6 °F 31.2 °F 30.05 in WNW 5.5 mph 11.5 mph 69 % 0.00 in
21:13 40.5 °F 31.5 °F 30.05 in NW 2.6 mph 6.9 mph 70 % 0.00 in
21:33 40.2 °F 30.8 °F 29.82 in NW 5.6 mph 13.8 mph 69 % 0.00 in
21:38 40.1 °F 30.7 °F 30.06 in NNW 4.5 mph 8.0 mph 69 % 0.00 in
21:48 40.0 °F 31.0 °F 30.06 in NNW 3.4 mph 6.0 mph 70 % 0.00 in
21:53 39.9 °F 30.9 °F 30.06 in West 6.1 mph 9.2 mph 70 % 0.00 in
21:58 39.8 °F 30.5 °F 30.06 in NNW 3.7 mph 10.4 mph 69 % 0.00 in
22:04 39.7 °F 30.7 °F 30.06 in NW 3.4 mph 11.0 mph 70 % 0.00 in
22:09 39.7 °F 31.1 °F 30.06 in NW 3.4 mph 8.1 mph 71 % 0.00 in
22:15 39.6 °F 30.6 °F 30.06 in WSW 5.0 mph 13.8 mph 70 % 0.00 in
22:21 39.5 °F 30.5 °F 30.06 in WNW 7.5 mph 11.5 mph 70 % 0.00 in
22:24 39.4 °F 30.8 °F 30.06 in NW 3.3 mph 11.5 mph 71 % 0.00 in
22:25 39.4 °F 30.8 °F 29.83 in NNW 2.3 mph 6.9 mph 71 % 0.00 in
22:26 39.4 °F 30.8 °F 30.06 in WNW 3.0 mph 8.0 mph 71 % 0.00 in
22:31 39.3 °F 30.7 °F 29.83 in WNW 3.7 mph 10.4 mph 71 % 0.00 in
22:36 39.2 °F 30.2 °F 30.06 in West 5.7 mph 9.2 mph 70 % 0.00 in
22:41 39.1 °F 29.8 °F 30.07 in East 5.1 mph 8.1 mph 69 % 0.00 in
22:51 39.0 °F 29.7 °F 29.84 in West 3.1 mph 12.7 mph 69 % 0.00 in
22:56 38.9 °F 29.9 °F 30.07 in NW 6.0 mph 11.5 mph 70 % 0.00 in
23:02 38.8 °F 29.8 °F 30.08 in WNW 4.7 mph 7.0 mph 70 % 0.00 in
23:12 38.8 °F 29.8 °F 30.08 in NW 2.9 mph 9.2 mph 70 % 0.00 in
23:22 38.7 °F 29.8 °F 30.08 in West 3.3 mph 9.2 mph 70 % 0.00 in
23:27 38.6 °F 29.3 °F 30.08 in NNW 1.3 mph 4.0 mph 69 % 0.00 in
23:32 38.5 °F 29.6 °F 30.08 in North 4.2 mph 12.0 mph 70 % 0.00 in
23:37 38.4 °F 29.5 °F 30.08 in West 2.1 mph 4.0 mph 70 % 0.00 in
23:42 38.4 °F 29.1 °F 30.08 in NW 2.5 mph 8.1 mph 69 % 0.00 in
23:47 38.3 °F 29.0 °F 30.08 in WNW 5.1 mph 10.4 mph 69 % 0.00 in
23:52 38.2 °F 28.9 °F 30.08 in NNW 2.5 mph 8.0 mph 69 % 0.00 in
Crab Meadow Weather
Compliments of Weather Underground - 2.5 mb

Script developed by  Jim McMurry - jmcmurry@mwt.net Adapted for the template by  Wim van der Kuil - Leuven-Template.eu

Astronomy: One day on Uranus is 18 hours